createdAt,value
2023-05-19T00:02:34.540Z,15.11
2023-05-19T00:05:20.826Z,15.04
2023-05-19T00:08:05.853Z,15.26
2023-05-19T00:10:50.233Z,15.13
2023-05-19T00:13:34.732Z,15.16
2023-05-19T00:16:19.236Z,15.12
2023-05-19T00:19:04.724Z,15.30
2023-05-19T00:21:50.010Z,15.39
2023-05-19T00:24:34.318Z,15.42
2023-05-19T00:27:18.144Z,15.66
2023-05-19T00:30:02.099Z,15.55
2023-05-19T00:32:48.322Z,15.48
2023-05-19T00:35:32.197Z,15.68
2023-05-19T00:38:17.522Z,15.35
2023-05-19T00:41:01.688Z,15.26
2023-05-19T00:43:45.735Z,15.01
2023-05-19T00:46:30.480Z,15.05
2023-05-19T00:49:14.365Z,15.02
2023-05-19T00:51:59.097Z,14.93
2023-05-19T00:54:45.662Z,15.00
2023-05-19T00:57:30.130Z,14.53
2023-05-19T01:00:15.367Z,14.44
2023-05-19T01:02:59.555Z,14.47
2023-05-19T01:05:44.937Z,14.65
2023-05-19T01:08:31.742Z,14.44
2023-05-19T01:11:17.252Z,14.48
2023-05-19T01:14:01.172Z,14.38
2023-05-19T01:16:50.459Z,14.50
2023-05-19T01:19:51.967Z,14.45
2023-05-19T01:22:56.656Z,14.50
2023-05-19T01:26:20.192Z,14.36
2023-05-19T01:29:29.384Z,14.32
2023-05-19T01:32:20.828Z,14.27
2023-05-19T01:35:06.795Z,14.25
2023-05-19T01:37:52.769Z,14.23
2023-05-19T01:40:38.427Z,14.16
2023-05-19T01:43:25.156Z,14.24
2023-05-19T01:46:10.385Z,14.23
2023-05-19T01:48:56.321Z,14.29
2023-05-19T01:51:40.148Z,14.24
2023-05-19T01:54:24.363Z,14.29
2023-05-19T01:57:15.698Z,14.06
2023-05-19T02:00:07.893Z,14.01
2023-05-19T02:03:06.212Z,14.25
2023-05-19T02:05:57.198Z,14.31
2023-05-19T02:08:45.505Z,14.44
2023-05-19T02:11:39.021Z,14.59
2023-05-19T02:14:32.820Z,14.67
2023-05-19T02:17:19.159Z,14.93
2023-05-19T02:20:04.636Z,15.01
2023-05-19T02:22:50.592Z,15.07
2023-05-19T02:25:35.603Z,15.07
2023-05-19T02:28:19.501Z,15.02
2023-05-19T02:31:03.509Z,15.09
2023-05-19T02:33:47.522Z,15.19
2023-05-19T02:36:34.850Z,15.07
2023-05-19T02:39:20.349Z,15.11
2023-05-19T02:42:04.275Z,15.17
2023-05-19T02:44:50.933Z,15.18
2023-05-19T02:47:36.997Z,15.14
2023-05-19T02:50:22.665Z,15.13
2023-05-19T02:53:06.651Z,15.20
2023-05-19T02:55:51.984Z,15.21
2023-05-19T02:58:35.947Z,15.24
2023-05-19T03:01:21.409Z,15.14
2023-05-19T03:04:05.747Z,15.20
2023-05-19T03:06:50.313Z,14.86
2023-05-19T03:09:34.177Z,15.11
2023-05-19T03:12:19.506Z,14.94
2023-05-19T03:15:03.494Z,15.20
2023-05-19T03:17:49.180Z,15.04
2023-05-19T03:20:33.619Z,15.29
2023-05-19T03:23:17.936Z,15.20
2023-05-19T03:26:01.863Z,15.18
2023-05-19T03:28:47.177Z,14.70
2023-05-19T03:31:31.370Z,14.87
2023-05-19T03:34:16.744Z,14.72
2023-05-19T03:37:00.656Z,14.80
2023-05-19T03:39:44.822Z,15.14
2023-05-19T03:42:28.796Z,14.95
2023-05-19T03:45:14.371Z,15.24
2023-05-19T03:48:01.124Z,15.11
2023-05-19T03:51:09.153Z,15.24
2023-05-19T03:53:53.177Z,14.98
2023-05-19T03:56:41.182Z,14.94
2023-05-19T03:59:33.223Z,15.15
2023-05-19T04:02:18.579Z,15.33
2023-05-19T04:05:05.949Z,15.27
2023-05-19T04:07:49.909Z,15.42
2023-05-19T04:10:34.845Z,15.47
2023-05-19T04:13:18.792Z,15.54
2023-05-19T04:16:03.049Z,15.55
2023-05-19T04:18:48.313Z,15.76
2023-05-19T04:21:32.232Z,15.96
2023-05-19T04:24:16.543Z,15.81
2023-05-19T04:27:02.801Z,15.87
2023-05-19T04:29:48.439Z,16.13
2023-05-19T04:32:32.662Z,16.11
2023-05-19T04:35:19.590Z,15.99
2023-05-19T04:38:04.824Z,16.20
2023-05-19T04:40:52.138Z,16.47
2023-05-19T04:43:36.599Z,16.38
2023-05-19T04:46:26.172Z,16.37
2023-05-19T04:49:14.102Z,16.36
2023-05-19T04:51:59.659Z,16.49
2023-05-19T04:54:47.651Z,16.62
2023-05-19T04:57:31.914Z,16.80
2023-05-19T05:00:17.262Z,16.94
2023-05-19T05:03:12.435Z,16.95
2023-05-19T05:05:56.971Z,16.81
2023-05-19T05:08:42.797Z,17.28
2023-05-19T05:11:27.477Z,17.42
2023-05-19T05:14:13.563Z,17.74
2023-05-19T05:16:59.370Z,17.51
2023-05-19T05:19:43.820Z,18.01
2023-05-19T05:22:28.406Z,17.83
2023-05-19T05:25:16.467Z,18.25
2023-05-19T05:28:05.339Z,18.09
2023-05-19T05:30:53.356Z,18.21
2023-05-19T05:33:37.592Z,18.50
2023-05-19T05:36:21.831Z,18.64
2023-05-19T05:39:05.919Z,18.48
2023-05-19T05:41:51.495Z,18.91
2023-05-19T05:44:37.579Z,18.91
2023-05-19T05:47:23.433Z,18.64
2023-05-19T05:50:09.877Z,18.07
2023-05-19T05:52:56.643Z,18.90
2023-05-19T05:55:44.712Z,18.91
2023-05-19T05:58:32.586Z,19.35
2023-05-19T06:01:17.034Z,19.45
2023-05-19T06:04:01.927Z,19.51
2023-05-19T06:06:47.107Z,19.49
2023-05-19T06:09:36.220Z,19.56
2023-05-19T06:12:22.994Z,20.03
2023-05-19T06:15:09.697Z,19.91
2023-05-19T06:18:29.108Z,20.17
2023-05-19T06:21:13.587Z,20.09
2023-05-19T06:23:59.060Z,20.37
2023-05-19T06:26:43.632Z,20.47
2023-05-19T06:29:27.638Z,20.46
2023-05-19T06:32:15.359Z,20.53
2023-05-19T06:34:59.821Z,20.58
2023-05-19T06:37:44.161Z,20.59
2023-05-19T06:40:28.517Z,20.65
2023-05-19T06:43:12.871Z,20.92
2023-05-19T06:46:10.691Z,21.28
2023-05-19T06:48:57.490Z,21.91
2023-05-19T06:51:43.981Z,21.47
2023-05-19T06:54:28.659Z,21.40
2023-05-19T06:57:13.866Z,21.77
2023-05-19T06:59:57.886Z,21.92
2023-05-19T07:02:43.945Z,21.90
2023-05-19T07:05:29.382Z,21.80
2023-05-19T07:08:15.575Z,22.08
2023-05-19T07:11:00.615Z,22.23
2023-05-19T07:13:45.680Z,22.18
2023-05-19T07:16:33.741Z,22.08
2023-05-19T07:19:19.872Z,22.12
2023-05-19T07:22:05.735Z,22.04
2023-05-19T07:24:49.773Z,22.09
2023-05-19T07:27:35.994Z,22.31
2023-05-19T07:30:20.012Z,22.35
2023-05-19T07:33:04.135Z,22.61
2023-05-19T07:35:48.245Z,22.31
2023-05-19T07:38:34.836Z,22.70
2023-05-19T07:41:18.795Z,22.74
2023-05-19T07:44:07.707Z,22.54
2023-05-19T07:46:52.039Z,22.87
2023-05-19T07:49:36.119Z,23.07
2023-05-19T07:52:20.009Z,23.09
2023-05-19T07:55:05.779Z,23.40
2023-05-19T07:57:49.882Z,23.24
2023-05-19T08:00:34.245Z,23.42
2023-05-19T08:03:18.899Z,23.76
2023-05-19T08:06:03.321Z,23.88
2023-05-19T08:08:47.590Z,24.15
2023-05-19T08:11:33.305Z,23.88
2023-05-19T08:14:17.709Z,23.67
2023-05-19T08:17:01.973Z,24.04
2023-05-19T08:19:46.559Z,24.28
2023-05-19T08:22:30.434Z,24.13
2023-05-19T08:25:14.376Z,24.41
2023-05-19T08:27:59.650Z,24.77
2023-05-19T08:30:43.591Z,24.87
2023-05-19T08:33:27.745Z,24.45
2023-05-19T08:36:11.857Z,24.36
2023-05-19T08:38:55.975Z,24.57
2023-05-19T08:41:40.006Z,24.77
2023-05-19T08:44:25.355Z,24.55
2023-05-19T08:47:13.902Z,24.73
2023-05-19T08:50:05.074Z,25.45
2023-05-19T08:52:53.687Z,24.87
2023-05-19T08:55:45.286Z,24.88
2023-05-19T08:58:29.253Z,25.62
2023-05-19T09:01:17.037Z,25.63
2023-05-19T09:04:01.916Z,26.08
2023-05-19T09:06:45.981Z,25.91
2023-05-19T09:09:30.646Z,26.23
2023-05-19T09:12:15.585Z,26.03
2023-05-19T09:14:59.732Z,25.34
2023-05-19T09:17:48.245Z,25.76
2023-05-19T09:20:33.073Z,25.99
2023-05-19T09:23:18.413Z,24.74
2023-05-19T09:26:05.134Z,24.10
2023-05-19T09:28:48.975Z,24.61
2023-05-19T09:31:34.325Z,24.87
2023-05-19T09:34:20.063Z,24.58
2023-05-19T09:37:04.004Z,24.19
2023-05-19T09:39:52.158Z,24.34
2023-05-19T09:42:38.985Z,24.50
2023-05-19T09:45:23.180Z,24.93
2023-05-19T09:48:07.916Z,25.13
2023-05-19T09:50:53.423Z,25.41
2023-05-19T09:53:39.136Z,25.46
2023-05-19T09:56:26.243Z,25.85
2023-05-19T09:59:10.335Z,26.01
2023-05-19T10:01:56.643Z,26.62
2023-05-19T10:04:41.513Z,25.71
2023-05-19T10:07:27.393Z,25.93
2023-05-19T10:10:14.299Z,25.38
2023-05-19T10:13:00.328Z,25.02
2023-05-19T10:15:57.438Z,25.15
2023-05-19T10:18:43.791Z,25.21
2023-05-19T10:21:27.838Z,24.47
2023-05-19T10:24:13.421Z,25.30
2023-05-19T10:27:02.641Z,25.55
2023-05-19T10:29:52.123Z,25.55
2023-05-19T10:32:39.017Z,25.37
2023-05-19T10:35:52.159Z,24.72
2023-05-19T10:38:44.366Z,24.73
2023-05-19T10:41:41.312Z,24.37
2023-05-19T10:44:37.347Z,24.27
2023-05-19T10:47:25.401Z,24.40
2023-05-19T10:50:10.129Z,24.61
2023-05-19T10:52:58.209Z,24.69
2023-05-19T10:55:53.427Z,24.76
2023-05-19T10:58:52.415Z,25.93
2023-05-19T11:01:39.123Z,25.19
2023-05-19T11:04:41.222Z,25.40
2023-05-19T11:07:25.345Z,25.02
2023-05-19T11:10:09.942Z,24.63
2023-05-19T11:12:54.155Z,24.93
2023-05-19T11:15:39.551Z,24.92
2023-05-19T11:18:23.483Z,25.07
2023-05-19T11:21:07.502Z,25.65
2023-05-19T11:23:53.774Z,25.26
2023-05-19T11:26:44.536Z,25.25
2023-05-19T11:29:29.114Z,25.09
2023-05-19T11:32:15.253Z,24.62
2023-05-19T11:34:59.379Z,25.08
2023-05-19T11:37:44.132Z,25.12
2023-05-19T11:40:28.238Z,24.90
2023-05-19T11:43:12.154Z,24.95
2023-05-19T11:45:56.649Z,25.29
2023-05-19T11:48:42.269Z,25.58
2023-05-19T11:51:26.625Z,25.12
2023-05-19T11:54:11.801Z,25.58
2023-05-19T11:56:56.009Z,26.26
2023-05-19T11:59:43.956Z,26.05
2023-05-19T12:02:30.050Z,25.59
2023-05-19T12:05:21.568Z,25.98
2023-05-19T12:08:06.517Z,26.00
2023-05-19T12:10:51.208Z,25.59
2023-05-19T12:13:36.385Z,25.26
2023-05-19T12:16:21.787Z,25.45
2023-05-19T12:19:07.283Z,25.63
2023-05-19T12:21:52.961Z,25.61
2023-05-19T12:24:37.712Z,26.17
2023-05-19T12:27:24.179Z,26.63
2023-05-19T12:30:09.870Z,26.43
2023-05-19T12:32:55.350Z,26.46
2023-05-19T12:35:39.444Z,25.93
2023-05-19T12:38:24.766Z,26.03
2023-05-19T12:41:08.650Z,25.69
2023-05-19T12:43:52.560Z,26.52
2023-05-19T12:46:36.459Z,25.77
2023-05-19T12:49:20.481Z,26.04
2023-05-19T12:52:10.477Z,26.24
2023-05-19T12:55:02.116Z,26.04
2023-05-19T12:57:50.658Z,25.91
2023-05-19T13:00:36.120Z,26.34
2023-05-19T13:03:22.241Z,25.79
2023-05-19T13:06:06.343Z,26.08
2023-05-19T13:08:50.157Z,25.97
2023-05-19T13:11:35.347Z,25.33
2023-05-19T13:14:19.728Z,25.52
2023-05-19T13:17:03.820Z,25.57
2023-05-19T13:19:47.815Z,25.38
2023-05-19T13:22:31.934Z,25.54
2023-05-19T13:25:16.172Z,25.38
2023-05-19T13:28:05.034Z,25.36
2023-05-19T13:30:49.755Z,25.46
2023-05-19T13:33:33.790Z,25.82
2023-05-19T13:36:17.744Z,25.95
2023-05-19T13:39:02.051Z,25.93
2023-05-19T13:41:46.822Z,26.27
2023-05-19T13:44:32.356Z,26.13
2023-05-19T13:47:16.480Z,26.07
2023-05-19T13:50:00.395Z,25.70
2023-05-19T13:52:45.089Z,25.65
2023-05-19T13:55:29.599Z,26.13
2023-05-19T13:58:14.930Z,26.17
2023-05-19T14:01:00.398Z,26.57
2023-05-19T14:03:44.628Z,27.10
2023-05-19T14:06:29.020Z,26.72
2023-05-19T14:09:13.345Z,26.62
2023-05-19T14:11:57.427Z,26.70
2023-05-19T14:14:41.409Z,26.58
2023-05-19T14:17:28.599Z,26.20
2023-05-19T14:20:13.381Z,26.73
2023-05-19T14:22:57.389Z,26.04
2023-05-19T14:25:41.624Z,26.56
2023-05-19T14:28:25.576Z,26.81
2023-05-19T14:31:12.786Z,26.28
2023-05-19T14:33:58.274Z,26.30
2023-05-19T14:36:42.164Z,26.83
2023-05-19T14:39:26.084Z,26.70
2023-05-19T14:42:09.890Z,26.50
2023-05-19T14:44:53.930Z,26.40
2023-05-19T14:47:37.764Z,26.57
2023-05-19T14:50:23.121Z,26.61
2023-05-19T14:53:07.177Z,26.24
2023-05-19T14:55:51.118Z,26.08
2023-05-19T14:58:34.853Z,25.92
2023-05-19T15:01:18.849Z,26.05
2023-05-19T15:04:02.847Z,26.03
2023-05-19T15:06:52.247Z,25.38
2023-05-19T15:09:42.530Z,25.90
2023-05-19T15:12:26.613Z,25.99
2023-05-19T15:15:11.396Z,25.99
2023-05-19T15:17:55.496Z,26.00
2023-05-19T15:20:39.537Z,25.80
2023-05-19T15:23:24.983Z,25.42
2023-05-19T15:26:08.836Z,25.91
2023-05-19T15:28:53.620Z,25.74
2023-05-19T15:31:38.454Z,25.84
2023-05-19T15:34:22.700Z,25.89
2023-05-19T15:37:06.917Z,26.06
2023-05-19T15:39:52.242Z,26.04
2023-05-19T15:42:36.153Z,25.45
2023-05-19T15:45:20.275Z,25.77
2023-05-19T15:48:04.309Z,25.93
2023-05-19T15:50:48.931Z,26.04
2023-05-19T15:53:32.786Z,25.85
2023-05-19T15:56:19.475Z,25.55
2023-05-19T15:59:03.538Z,25.18
2023-05-19T16:01:48.787Z,25.10
2023-05-19T16:04:33.638Z,25.28
2023-05-19T16:07:18.659Z,25.27
2023-05-19T16:10:02.501Z,25.19
2023-05-19T16:12:49.985Z,25.49
2023-05-19T16:15:33.925Z,25.53
2023-05-19T16:18:17.890Z,25.30
2023-05-19T16:21:01.846Z,25.08
2023-05-19T16:23:45.819Z,24.96
2023-05-19T16:26:29.710Z,24.77
2023-05-19T16:29:15.134Z,24.93
2023-05-19T16:31:59.177Z,24.70
2023-05-19T16:34:43.008Z,24.50
2023-05-19T16:37:26.944Z,24.55
2023-05-19T16:40:11.395Z,24.50
2023-05-19T16:42:55.220Z,24.27
2023-05-19T16:45:40.514Z,23.91
2023-05-19T16:48:24.357Z,24.14
2023-05-19T16:51:08.178Z,24.18
2023-05-19T16:53:52.027Z,24.10
2023-05-19T16:56:35.942Z,24.06
2023-05-19T16:59:19.877Z,24.16
2023-05-19T17:02:05.593Z,23.88
2023-05-19T17:04:49.626Z,23.91
2023-05-19T17:07:33.540Z,23.80
2023-05-19T17:10:19.240Z,23.45
2023-05-19T17:13:04.357Z,23.18
2023-05-19T17:15:52.532Z,22.79
2023-05-19T17:18:37.930Z,22.58
2023-05-19T17:21:21.746Z,22.24
2023-05-19T17:24:05.807Z,21.99
2023-05-19T17:26:49.787Z,22.14
2023-05-19T17:29:33.711Z,21.89
2023-05-19T17:32:25.837Z,21.57
2023-05-19T17:35:11.428Z,21.33
2023-05-19T17:37:55.282Z,21.17
2023-05-19T17:40:40.724Z,21.08
2023-05-19T17:43:26.226Z,21.09
2023-05-19T17:46:11.818Z,20.98
2023-05-19T17:48:55.800Z,20.95
2023-05-19T17:51:41.703Z,21.20
2023-05-19T17:54:26.401Z,21.39
2023-05-19T17:57:13.503Z,21.14
2023-05-19T18:00:00.150Z,21.20
2023-05-19T18:02:45.123Z,21.07
2023-05-19T18:05:29.549Z,20.93
2023-05-19T18:08:15.243Z,21.01
2023-05-19T18:11:02.496Z,20.72
2023-05-19T18:13:46.319Z,20.57
2023-05-19T18:16:32.613Z,20.36
2023-05-19T18:19:16.549Z,20.53
2023-05-19T18:22:00.410Z,20.37
2023-05-19T18:24:47.212Z,20.24
2023-05-19T18:27:31.536Z,20.30
2023-05-19T18:30:15.395Z,20.02
2023-05-19T18:33:04.168Z,19.97
2023-05-19T18:35:48.192Z,19.94
2023-05-19T18:38:32.049Z,19.95
2023-05-19T18:41:17.536Z,20.08
2023-05-19T18:44:01.418Z,20.06
2023-05-19T18:46:48.068Z,19.84
2023-05-19T18:49:31.991Z,19.65
2023-05-19T18:52:16.016Z,19.72
2023-05-19T18:55:01.285Z,19.61
2023-05-19T18:57:51.516Z,19.71
2023-05-19T19:00:36.696Z,19.26
2023-05-19T19:03:20.534Z,19.42
2023-05-19T19:06:04.699Z,19.38
2023-05-19T19:08:48.545Z,19.12
2023-05-19T19:11:32.342Z,19.34
2023-05-19T19:14:19.482Z,18.57
2023-05-19T19:17:03.452Z,19.09
2023-05-19T19:19:47.455Z,19.44
2023-05-19T19:22:32.623Z,19.27
2023-05-19T19:25:23.730Z,19.00
2023-05-19T19:28:10.671Z,19.38
2023-05-19T19:30:56.304Z,19.13
2023-05-19T19:33:41.545Z,18.65
2023-05-19T19:36:25.731Z,19.20
2023-05-19T19:39:09.675Z,19.04
2023-05-19T19:41:54.831Z,19.03
2023-05-19T19:44:38.688Z,19.07
2023-05-19T19:47:24.424Z,19.21
2023-05-19T19:50:12.022Z,19.16
2023-05-19T19:52:57.796Z,19.00
2023-05-19T19:55:41.656Z,19.14
2023-05-19T19:58:25.725Z,19.09
2023-05-19T20:01:09.629Z,18.86
2023-05-19T20:03:55.721Z,18.67
2023-05-19T20:06:39.925Z,18.50
2023-05-19T20:09:23.661Z,18.82
2023-05-19T20:12:08.380Z,18.89
2023-05-19T20:14:54.556Z,18.73
2023-05-19T20:17:38.495Z,18.53
2023-05-19T20:20:23.870Z,18.70
2023-05-19T20:23:08.161Z,18.71
2023-05-19T20:26:10.327Z,18.39
2023-05-19T20:28:56.009Z,18.62
2023-05-19T20:31:40.019Z,18.61
2023-05-19T20:34:23.992Z,18.73
2023-05-19T20:37:09.269Z,18.63
2023-05-19T20:39:53.206Z,18.75
2023-05-19T20:42:38.610Z,18.67
2023-05-19T20:45:22.436Z,18.72
2023-05-19T20:48:07.216Z,18.48
2023-05-19T20:50:51.844Z,18.51
2023-05-19T20:53:37.131Z,18.57
2023-05-19T20:56:22.155Z,18.34
2023-05-19T20:59:06.280Z,17.83
2023-05-19T21:01:50.200Z,17.99
2023-05-19T21:04:34.418Z,17.83
2023-05-19T21:07:18.338Z,18.13
2023-05-19T21:10:03.733Z,18.05
2023-05-19T21:12:49.473Z,17.95
2023-05-19T21:15:33.280Z,18.15
2023-05-19T21:18:17.153Z,18.18
2023-05-19T21:21:03.422Z,18.03
2023-05-19T21:23:47.361Z,18.27
2023-05-19T21:26:32.538Z,18.17
2023-05-19T21:29:16.471Z,18.13
2023-05-19T21:32:00.404Z,18.12
2023-05-19T21:34:45.196Z,18.19
2023-05-19T21:37:29.136Z,18.29
2023-05-19T21:40:13.961Z,18.22
2023-05-19T21:42:59.396Z,17.93
2023-05-19T21:45:43.348Z,18.07
2023-05-19T21:48:27.196Z,18.01
2023-05-19T21:51:11.111Z,17.82
2023-05-19T21:53:54.994Z,17.85
2023-05-19T21:56:38.839Z,17.93
2023-05-19T21:59:24.870Z,17.89
2023-05-19T22:02:08.941Z,18.19
2023-05-19T22:04:52.906Z,18.22
2023-05-19T22:07:36.774Z,18.37
2023-05-19T22:10:20.865Z,18.40
2023-05-19T22:13:04.684Z,18.69
2023-05-19T22:15:49.911Z,18.68
2023-05-19T22:18:34.048Z,18.58
2023-05-19T22:21:17.852Z,18.65
2023-05-19T22:24:01.793Z,18.51
2023-05-19T22:26:47.021Z,18.35
2023-05-19T22:29:30.982Z,18.40
2023-05-19T22:32:18.372Z,18.46
2023-05-19T22:35:02.360Z,18.40
2023-05-19T22:37:48.537Z,18.42
2023-05-19T22:40:33.937Z,18.23
2023-05-19T22:43:18.030Z,18.28
2023-05-19T22:46:01.886Z,18.31
2023-05-19T22:48:47.126Z,18.23
2023-05-19T22:51:31.376Z,18.38
2023-05-19T22:54:15.204Z,17.90
2023-05-19T22:56:59.121Z,18.01
2023-05-19T22:59:42.980Z,18.03
2023-05-19T23:02:27.482Z,17.96
2023-05-19T23:05:12.979Z,18.05
2023-05-19T23:07:56.855Z,17.89
2023-05-19T23:10:40.704Z,17.80
2023-05-19T23:13:24.553Z,17.83
2023-05-19T23:16:08.653Z,17.59
2023-05-19T23:18:52.535Z,17.42
2023-05-19T23:21:38.002Z,17.50
2023-05-19T23:24:21.875Z,17.49
2023-05-19T23:27:06.646Z,17.39
2023-05-19T23:29:50.664Z,17.16
2023-05-19T23:32:34.531Z,17.47
2023-05-19T23:35:18.849Z,17.48
2023-05-19T23:38:04.147Z,17.36
2023-05-19T23:40:48.103Z,17.31
2023-05-19T23:43:32.540Z,17.23
2023-05-19T23:46:16.568Z,17.14
2023-05-19T23:49:00.681Z,16.94
2023-05-19T23:51:44.757Z,16.83
2023-05-19T23:54:30.417Z,16.81
2023-05-19T23:57:14.289Z,16.51
2023-05-19T23:59:58.195Z,16.53
